sensor_id;sensor_type;location;lat;lon;timestamp;P1;durP1;ratioP1;P2;durP2;ratioP2
66663;SDS011;59683;51.428;-1.994;2023-09-08T00:01:59;10.40;;;7.80;;
66663;SDS011;59683;51.428;-1.994;2023-09-08T00:04:25;11.33;;;7.50;;
66663;SDS011;59683;51.428;-1.994;2023-09-08T00:06:50;12.47;;;7.37;;
66663;SDS011;59683;51.428;-1.994;2023-09-08T00:09:16;9.37;;;7.23;;
66663;SDS011;59683;51.428;-1.994;2023-09-08T00:11:41;11.03;;;7.33;;
66663;SDS011;59683;51.428;-1.994;2023-09-08T00:14:07;10.67;;;7.40;;
66663;SDS011;59683;51.428;-1.994;2023-09-08T00:16:32;9.70;;;7.17;;
66663;SDS011;59683;51.428;-1.994;2023-09-08T00:18:58;15.27;;;8.83;;
66663;SDS011;59683;51.428;-1.994;2023-09-08T00:21:24;10.87;;;7.37;;
66663;SDS011;59683;51.428;-1.994;2023-09-08T00:23:50;12.23;;;7.37;;
66663;SDS011;59683;51.428;-1.994;2023-09-08T00:26:16;11.53;;;7.40;;
66663;SDS011;59683;51.428;-1.994;2023-09-08T00:28:41;11.93;;;8.87;;
66663;SDS011;59683;51.428;-1.994;2023-09-08T00:31:07;16.87;;;10.20;;
66663;SDS011;59683;51.428;-1.994;2023-09-08T00:33:32;14.23;;;9.73;;
66663;SDS011;59683;51.428;-1.994;2023-09-08T00:35:58;13.83;;;9.37;;
66663;SDS011;59683;51.428;-1.994;2023-09-08T00:38:23;10.70;;;7.70;;
66663;SDS011;59683;51.428;-1.994;2023-09-08T00:40:49;9.07;;;7.23;;
66663;SDS011;59683;51.428;-1.994;2023-09-08T00:43:14;13.93;;;8.00;;
66663;SDS011;59683;51.428;-1.994;2023-09-08T00:45:40;11.07;;;7.63;;
66663;SDS011;59683;51.428;-1.994;2023-09-08T00:48:07;12.97;;;7.30;;
66663;SDS011;59683;51.428;-1.994;2023-09-08T00:50:34;11.77;;;7.10;;
66663;SDS011;59683;51.428;-1.994;2023-09-08T00:53:01;13.33;;;7.13;;
66663;SDS011;59683;51.428;-1.994;2023-09-08T00:55:28;11.17;;;8.20;;
66663;SDS011;59683;51.428;-1.994;2023-09-08T00:57:53;13.30;;;8.50;;
66663;SDS011;59683;51.428;-1.994;2023-09-08T01:00:19;11.13;;;8.17;;
66663;SDS011;59683;51.428;-1.994;2023-09-08T01:02:44;14.13;;;8.30;;
66663;SDS011;59683;51.428;-1.994;2023-09-08T01:05:10;14.57;;;8.63;;
66663;SDS011;59683;51.428;-1.994;2023-09-08T01:07:36;12.80;;;8.73;;
66663;SDS011;59683;51.428;-1.994;2023-09-08T01:10:02;12.30;;;8.23;;
66663;SDS011;59683;51.428;-1.994;2023-09-08T01:12:31;15.63;;;10.18;;
66663;SDS011;59683;51.428;-1.994;2023-09-08T01:14:58;15.70;;;9.87;;
66663;SDS011;59683;51.428;-1.994;2023-09-08T01:17:25;17.00;;;10.80;;
66663;SDS011;59683;51.428;-1.994;2023-09-08T01:19:50;15.97;;;9.43;;
66663;SDS011;59683;51.428;-1.994;2023-09-08T01:27:29;16.20;;;10.10;;
66663;SDS011;59683;51.428;-1.994;2023-09-08T01:29:58;17.63;;;12.25;;
66663;SDS011;59683;51.428;-1.994;2023-09-08T01:32:25;17.80;;;10.70;;
66663;SDS011;59683;51.428;-1.994;2023-09-08T01:34:51;20.20;;;11.37;;
66663;SDS011;59683;51.428;-1.994;2023-09-08T01:37:17;16.77;;;11.57;;
66663;SDS011;59683;51.428;-1.994;2023-09-08T01:39:42;12.27;;;9.50;;
66663;SDS011;59683;51.428;-1.994;2023-09-08T01:42:08;14.43;;;8.33;;
66663;SDS011;59683;51.428;-1.994;2023-09-08T01:44:33;15.33;;;10.90;;
66663;SDS011;59683;51.428;-1.994;2023-09-08T01:46:59;21.83;;;12.40;;
66663;SDS011;59683;51.428;-1.994;2023-09-08T01:49:24;18.47;;;11.87;;
66663;SDS011;59683;51.428;-1.994;2023-09-08T01:51:50;14.40;;;10.27;;
66663;SDS011;59683;51.428;-1.994;2023-09-08T01:54:15;15.93;;;10.67;;
66663;SDS011;59683;51.428;-1.994;2023-09-08T01:56:41;17.53;;;9.60;;
66663;SDS011;59683;51.428;-1.994;2023-09-08T01:59:07;12.40;;;9.97;;
66663;SDS011;59683;51.428;-1.994;2023-09-08T02:01:32;19.07;;;10.20;;
66663;SDS011;59683;51.428;-1.994;2023-09-08T02:03:57;14.47;;;10.27;;
66663;SDS011;59683;51.428;-1.994;2023-09-08T02:06:23;14.30;;;8.80;;
66663;SDS011;59683;51.428;-1.994;2023-09-08T02:08:48;12.03;;;8.30;;
66663;SDS011;59683;51.428;-1.994;2023-09-08T02:11:13;15.37;;;8.63;;
66663;SDS011;59683;51.428;-1.994;2023-09-08T02:13:41;12.07;;;7.90;;
66663;SDS011;59683;51.428;-1.994;2023-09-08T02:16:07;9.77;;;7.20;;
66663;SDS011;59683;51.428;-1.994;2023-09-08T02:18:33;11.17;;;7.27;;
66663;SDS011;59683;51.428;-1.994;2023-09-08T02:20:58;12.07;;;8.00;;
66663;SDS011;59683;51.428;-1.994;2023-09-08T02:23:23;13.57;;;8.90;;
66663;SDS011;59683;51.428;-1.994;2023-09-08T02:25:49;12.77;;;8.23;;
66663;SDS011;59683;51.428;-1.994;2023-09-08T02:28:14;16.30;;;9.27;;
66663;SDS011;59683;51.428;-1.994;2023-09-08T02:30:40;15.60;;;9.80;;
66663;SDS011;59683;51.428;-1.994;2023-09-08T02:33:05;14.27;;;8.00;;
66663;SDS011;59683;51.428;-1.994;2023-09-08T02:35:35;12.80;;;7.10;;
66663;SDS011;59683;51.428;-1.994;2023-09-08T02:38:01;13.63;;;8.23;;
66663;SDS011;59683;51.428;-1.994;2023-09-08T02:40:27;12.60;;;8.83;;
66663;SDS011;59683;51.428;-1.994;2023-09-08T02:42:52;11.97;;;8.53;;
66663;SDS011;59683;51.428;-1.994;2023-09-08T02:45:17;10.57;;;7.37;;
66663;SDS011;59683;51.428;-1.994;2023-09-08T02:47:43;10.50;;;7.37;;
66663;SDS011;59683;51.428;-1.994;2023-09-08T02:50:08;9.97;;;7.03;;
66663;SDS011;59683;51.428;-1.994;2023-09-08T02:52:34;16.13;;;7.87;;
66663;SDS011;59683;51.428;-1.994;2023-09-08T02:54:59;12.47;;;8.20;;
66663;SDS011;59683;51.428;-1.994;2023-09-08T02:57:24;11.17;;;6.90;;
66663;SDS011;59683;51.428;-1.994;2023-09-08T02:59:50;11.27;;;7.07;;
66663;SDS011;59683;51.428;-1.994;2023-09-08T03:02:21;12.47;;;8.23;;
66663;SDS011;59683;51.428;-1.994;2023-09-08T03:04:46;11.93;;;7.50;;
66663;SDS011;59683;51.428;-1.994;2023-09-08T03:07:12;14.90;;;7.43;;
66663;SDS011;59683;51.428;-1.994;2023-09-08T03:09:37;12.73;;;7.80;;
66663;SDS011;59683;51.428;-1.994;2023-09-08T03:12:03;9.93;;;7.43;;
66663;SDS011;59683;51.428;-1.994;2023-09-08T03:14:28;14.03;;;8.13;;
66663;SDS011;59683;51.428;-1.994;2023-09-08T03:16:54;13.60;;;8.57;;
66663;SDS011;59683;51.428;-1.994;2023-09-08T03:19:19;16.07;;;10.57;;
66663;SDS011;59683;51.428;-1.994;2023-09-08T03:21:44;15.23;;;9.60;;
66663;SDS011;59683;51.428;-1.994;2023-09-08T03:24:10;18.60;;;12.00;;
66663;SDS011;59683;51.428;-1.994;2023-09-08T03:26:35;15.37;;;9.67;;
66663;SDS011;59683;51.428;-1.994;2023-09-08T03:29:01;15.93;;;10.23;;
66663;SDS011;59683;51.428;-1.994;2023-09-08T03:31:26;22.43;;;13.57;;
66663;SDS011;59683;51.428;-1.994;2023-09-08T03:33:52;23.23;;;12.03;;
66663;SDS011;59683;51.428;-1.994;2023-09-08T03:36:18;20.20;;;12.07;;
66663;SDS011;59683;51.428;-1.994;2023-09-08T03:38:43;15.47;;;9.17;;
66663;SDS011;59683;51.428;-1.994;2023-09-08T03:41:09;15.50;;;7.93;;
66663;SDS011;59683;51.428;-1.994;2023-09-08T03:43:34;12.33;;;7.50;;
66663;SDS011;59683;51.428;-1.994;2023-09-08T03:45:59;10.57;;;6.90;;
66663;SDS011;59683;51.428;-1.994;2023-09-08T03:48:25;13.80;;;6.67;;
66663;SDS011;59683;51.428;-1.994;2023-09-08T03:50:50;15.13;;;8.03;;
66663;SDS011;59683;51.428;-1.994;2023-09-08T03:53:16;12.83;;;8.30;;
66663;SDS011;59683;51.428;-1.994;2023-09-08T03:55:41;13.13;;;8.93;;
66663;SDS011;59683;51.428;-1.994;2023-09-08T03:58:09;17.20;;;8.83;;
66663;SDS011;59683;51.428;-1.994;2023-09-08T04:00:35;12.20;;;8.23;;
66663;SDS011;59683;51.428;-1.994;2023-09-08T04:03:01;13.53;;;8.73;;
66663;SDS011;59683;51.428;-1.994;2023-09-08T04:05:26;12.43;;;8.30;;
66663;SDS011;59683;51.428;-1.994;2023-09-08T04:07:51;11.20;;;7.50;;
66663;SDS011;59683;51.428;-1.994;2023-09-08T04:10:18;14.50;;;8.40;;
66663;SDS011;59683;51.428;-1.994;2023-09-08T04:12:43;12.63;;;7.70;;
66663;SDS011;59683;51.428;-1.994;2023-09-08T04:15:09;18.17;;;10.20;;
66663;SDS011;59683;51.428;-1.994;2023-09-08T04:17:35;16.13;;;9.30;;
66663;SDS011;59683;51.428;-1.994;2023-09-08T04:20:01;13.57;;;9.13;;
66663;SDS011;59683;51.428;-1.994;2023-09-08T04:22:30;19.05;;;10.75;;
66663;SDS011;59683;51.428;-1.994;2023-09-08T04:24:56;17.13;;;10.03;;
66663;SDS011;59683;51.428;-1.994;2023-09-08T04:27:22;14.33;;;8.60;;
66663;SDS011;59683;51.428;-1.994;2023-09-08T04:29:48;13.23;;;8.03;;
66663;SDS011;59683;51.428;-1.994;2023-09-08T04:32:13;13.57;;;7.60;;
66663;SDS011;59683;51.428;-1.994;2023-09-08T04:34:39;15.67;;;9.50;;
66663;SDS011;59683;51.428;-1.994;2023-09-08T04:37:05;9.43;;;6.63;;
66663;SDS011;59683;51.428;-1.994;2023-09-08T04:39:31;15.37;;;7.30;;
66663;SDS011;59683;51.428;-1.994;2023-09-08T04:41:57;11.17;;;7.30;;
66663;SDS011;59683;51.428;-1.994;2023-09-08T04:44:23;14.83;;;8.73;;
66663;SDS011;59683;51.428;-1.994;2023-09-08T04:46:48;11.20;;;7.40;;
66663;SDS011;59683;51.428;-1.994;2023-09-08T04:49:13;9.60;;;6.70;;
66663;SDS011;59683;51.428;-1.994;2023-09-08T04:51:39;11.67;;;6.53;;
66663;SDS011;59683;51.428;-1.994;2023-09-08T04:54:04;9.53;;;6.87;;
66663;SDS011;59683;51.428;-1.994;2023-09-08T04:56:30;11.83;;;6.87;;
66663;SDS011;59683;51.428;-1.994;2023-09-08T04:58:55;13.20;;;6.80;;
66663;SDS011;59683;51.428;-1.994;2023-09-08T05:01:22;12.37;;;6.70;;
66663;SDS011;59683;51.428;-1.994;2023-09-08T05:03:48;10.40;;;7.23;;
66663;SDS011;59683;51.428;-1.994;2023-09-08T05:06:13;10.60;;;6.67;;
66663;SDS011;59683;51.428;-1.994;2023-09-08T05:08:39;11.90;;;7.13;;
66663;SDS011;59683;51.428;-1.994;2023-09-08T05:11:04;10.20;;;6.47;;
66663;SDS011;59683;51.428;-1.994;2023-09-08T05:13:30;9.83;;;6.97;;
66663;SDS011;59683;51.428;-1.994;2023-09-08T05:15:56;10.13;;;6.37;;
66663;SDS011;59683;51.428;-1.994;2023-09-08T05:18:36;11.48;;;6.53;;
66663;SDS011;59683;51.428;-1.994;2023-09-08T05:21:03;10.77;;;6.53;;
66663;SDS011;59683;51.428;-1.994;2023-09-08T05:23:28;10.30;;;6.87;;
66663;SDS011;59683;51.428;-1.994;2023-09-08T08:24:20;7.67;;;3.77;;
66663;SDS011;59683;51.428;-1.994;2023-09-08T08:26:46;6.43;;;3.53;;
66663;SDS011;59683;51.428;-1.994;2023-09-08T08:29:11;10.25;;;4.03;;
66663;SDS011;59683;51.428;-1.994;2023-09-08T08:31:36;12.63;;;6.00;;
66663;SDS011;59683;51.428;-1.994;2023-09-08T08:34:02;7.85;;;4.53;;
66663;SDS011;59683;51.428;-1.994;2023-09-08T08:36:28;9.00;;;4.78;;
66663;SDS011;59683;51.428;-1.994;2023-09-08T08:38:53;8.38;;;4.63;;
66663;SDS011;59683;51.428;-1.994;2023-09-08T08:41:19;12.45;;;4.90;;
66663;SDS011;59683;51.428;-1.994;2023-09-08T08:43:44;7.63;;;4.85;;
66663;SDS011;59683;51.428;-1.994;2023-09-08T08:46:10;10.35;;;5.22;;
66663;SDS011;59683;51.428;-1.994;2023-09-08T08:48:38;10.50;;;4.95;;
66663;SDS011;59683;51.428;-1.994;2023-09-08T08:51:05;7.55;;;4.30;;
66663;SDS011;59683;51.428;-1.994;2023-09-08T08:53:33;6.93;;;4.70;;
66663;SDS011;59683;51.428;-1.994;2023-09-08T08:59:11;8.95;;;4.15;;
66663;SDS011;59683;51.428;-1.994;2023-09-08T09:01:37;13.40;;;4.25;;
66663;SDS011;59683;51.428;-1.994;2023-09-08T09:04:06;7.78;;;4.75;;
66663;SDS011;59683;51.428;-1.994;2023-09-08T09:06:34;9.43;;;4.57;;
66663;SDS011;59683;51.428;-1.994;2023-09-08T09:08:59;9.43;;;4.50;;
66663;SDS011;59683;51.428;-1.994;2023-09-08T09:11:25;7.43;;;3.67;;
66663;SDS011;59683;51.428;-1.994;2023-09-08T09:13:51;8.25;;;4.10;;
66663;SDS011;59683;51.428;-1.994;2023-09-08T09:16:16;7.00;;;3.70;;
66663;SDS011;59683;51.428;-1.994;2023-09-08T09:21:20;6.47;;;4.18;;
66663;SDS011;59683;51.428;-1.994;2023-09-08T09:23:46;8.32;;;3.70;;
66663;SDS011;59683;51.428;-1.994;2023-09-08T09:26:12;5.63;;;3.80;;
66663;SDS011;59683;51.428;-1.994;2023-09-08T09:28:48;5.63;;;3.15;;
66663;SDS011;59683;51.428;-1.994;2023-09-08T09:31:14;5.55;;;2.97;;
66663;SDS011;59683;51.428;-1.994;2023-09-08T09:33:40;5.47;;;2.95;;
66663;SDS011;59683;51.428;-1.994;2023-09-08T09:36:05;6.40;;;2.92;;
66663;SDS011;59683;51.428;-1.994;2023-09-08T09:38:31;8.15;;;3.47;;
66663;SDS011;59683;51.428;-1.994;2023-09-08T09:41:00;5.82;;;3.33;;
66663;SDS011;59683;51.428;-1.994;2023-09-08T09:43:25;6.60;;;2.83;;
66663;SDS011;59683;51.428;-1.994;2023-09-08T09:45:52;7.43;;;3.33;;
66663;SDS011;59683;51.428;-1.994;2023-09-08T09:48:19;5.72;;;3.25;;
66663;SDS011;59683;51.428;-1.994;2023-09-08T09:50:46;6.03;;;2.78;;
66663;SDS011;59683;51.428;-1.994;2023-09-08T09:53:12;6.32;;;2.58;;
66663;SDS011;59683;51.428;-1.994;2023-09-08T09:55:42;4.85;;;2.42;;
66663;SDS011;59683;51.428;-1.994;2023-09-08T10:00:35;3.92;;;1.80;;
66663;SDS011;59683;51.428;-1.994;2023-09-08T10:03:02;6.65;;;2.10;;
66663;SDS011;59683;51.428;-1.994;2023-09-08T10:05:29;6.03;;;2.30;;
66663;SDS011;59683;51.428;-1.994;2023-09-08T10:07:54;4.80;;;2.45;;
66663;SDS011;59683;51.428;-1.994;2023-09-08T10:10:21;3.88;;;1.77;;
66663;SDS011;59683;51.428;-1.994;2023-09-08T10:12:54;5.95;;;2.28;;
66663;SDS011;59683;51.428;-1.994;2023-09-08T10:15:24;4.63;;;2.58;;
66663;SDS011;59683;51.428;-1.994;2023-09-08T10:17:54;4.72;;;2.15;;
66663;SDS011;59683;51.428;-1.994;2023-09-08T10:20:25;5.47;;;2.33;;
66663;SDS011;59683;51.428;-1.994;2023-09-08T10:23:03;7.13;;;2.95;;
66663;SDS011;59683;51.428;-1.994;2023-09-08T10:25:34;8.10;;;3.72;;
66663;SDS011;59683;51.428;-1.994;2023-09-08T10:28:04;8.95;;;5.35;;
66663;SDS011;59683;51.428;-1.994;2023-09-08T10:30:31;10.15;;;5.40;;
66663;SDS011;59683;51.428;-1.994;2023-09-08T10:32:57;16.20;;;6.88;;
66663;SDS011;59683;51.428;-1.994;2023-09-08T10:35:24;11.13;;;5.07;;
66663;SDS011;59683;51.428;-1.994;2023-09-08T10:37:50;7.82;;;5.38;;
66663;SDS011;59683;51.428;-1.994;2023-09-08T10:43:08;6.60;;;3.58;;
66663;SDS011;59683;51.428;-1.994;2023-09-08T10:45:34;11.80;;;4.43;;
66663;SDS011;59683;51.428;-1.994;2023-09-08T10:48:00;10.13;;;4.75;;
66663;SDS011;59683;51.428;-1.994;2023-09-08T10:50:26;5.88;;;2.50;;
66663;SDS011;59683;51.428;-1.994;2023-09-08T10:53:14;6.20;;;2.90;;
66663;SDS011;59683;51.428;-1.994;2023-09-08T10:55:42;8.25;;;3.38;;
66663;SDS011;59683;51.428;-1.994;2023-09-08T10:58:16;9.07;;;2.83;;
66663;SDS011;59683;51.428;-1.994;2023-09-08T11:00:44;10.60;;;2.88;;
66663;SDS011;59683;51.428;-1.994;2023-09-08T11:03:25;6.88;;;2.50;;
66663;SDS011;59683;51.428;-1.994;2023-09-08T11:06:08;4.82;;;2.22;;
66663;SDS011;59683;51.428;-1.994;2023-09-08T11:08:36;5.53;;;3.03;;
66663;SDS011;59683;51.428;-1.994;2023-09-08T11:13:28;6.03;;;2.67;;
66663;SDS011;59683;51.428;-1.994;2023-09-08T11:15:54;5.68;;;2.55;;
66663;SDS011;59683;51.428;-1.994;2023-09-08T11:18:29;5.68;;;2.40;;
66663;SDS011;59683;51.428;-1.994;2023-09-08T11:20:56;5.15;;;2.08;;
66663;SDS011;59683;51.428;-1.994;2023-09-08T11:23:22;5.93;;;2.10;;
66663;SDS011;59683;51.428;-1.994;2023-09-08T11:25:49;7.70;;;2.30;;
66663;SDS011;59683;51.428;-1.994;2023-09-08T11:28:16;4.60;;;2.10;;
66663;SDS011;59683;51.428;-1.994;2023-09-08T11:30:43;6.35;;;2.33;;
66663;SDS011;59683;51.428;-1.994;2023-09-08T11:33:15;5.15;;;1.73;;
66663;SDS011;59683;51.428;-1.994;2023-09-08T11:38:11;4.40;;;1.70;;
66663;SDS011;59683;51.428;-1.994;2023-09-08T11:40:36;6.82;;;1.98;;
66663;SDS011;59683;51.428;-1.994;2023-09-08T11:43:03;4.45;;;1.90;;
66663;SDS011;59683;51.428;-1.994;2023-09-08T11:45:30;5.25;;;2.20;;
66663;SDS011;59683;51.428;-1.994;2023-09-08T11:47:56;3.08;;;1.50;;
66663;SDS011;59683;51.428;-1.994;2023-09-08T11:50:22;9.05;;;1.73;;
66663;SDS011;59683;51.428;-1.994;2023-09-08T11:52:49;4.00;;;1.70;;
66663;SDS011;59683;51.428;-1.994;2023-09-08T11:55:16;3.58;;;1.75;;
66663;SDS011;59683;51.428;-1.994;2023-09-08T11:57:43;3.78;;;1.70;;
66663;SDS011;59683;51.428;-1.994;2023-09-08T12:00:11;4.22;;;1.50;;
66663;SDS011;59683;51.428;-1.994;2023-09-08T12:02:42;4.43;;;1.60;;
66663;SDS011;59683;51.428;-1.994;2023-09-08T12:08:07;5.30;;;1.50;;
66663;SDS011;59683;51.428;-1.994;2023-09-08T12:10:39;6.75;;;1.77;;
66663;SDS011;59683;51.428;-1.994;2023-09-08T12:13:06;7.60;;;1.60;;
66663;SDS011;59683;51.428;-1.994;2023-09-08T12:18:06;4.13;;;1.45;;
66663;SDS011;59683;51.428;-1.994;2023-09-08T12:20:33;4.20;;;1.70;;
66663;SDS011;59683;51.428;-1.994;2023-09-08T12:23:04;5.63;;;1.42;;
66663;SDS011;59683;51.428;-1.994;2023-09-08T12:25:32;4.70;;;1.85;;
66663;SDS011;59683;51.428;-1.994;2023-09-08T12:27:58;4.95;;;1.75;;
66663;SDS011;59683;51.428;-1.994;2023-09-08T12:30:25;5.07;;;1.60;;
66663;SDS011;59683;51.428;-1.994;2023-09-08T12:32:55;6.85;;;1.83;;
66663;SDS011;59683;51.428;-1.994;2023-09-08T12:35:22;6.03;;;1.83;;
66663;SDS011;59683;51.428;-1.994;2023-09-08T12:38:06;6.85;;;1.95;;
66663;SDS011;59683;51.428;-1.994;2023-09-08T12:40:36;3.58;;;1.42;;
66663;SDS011;59683;51.428;-1.994;2023-09-08T12:43:03;6.93;;;1.67;;
66663;SDS011;59683;51.428;-1.994;2023-09-08T12:45:29;3.80;;;1.80;;
66663;SDS011;59683;51.428;-1.994;2023-09-08T12:47:57;5.93;;;1.92;;
66663;SDS011;59683;51.428;-1.994;2023-09-08T12:50:25;8.07;;;1.83;;
66663;SDS011;59683;51.428;-1.994;2023-09-08T12:52:51;5.10;;;1.70;;
66663;SDS011;59683;51.428;-1.994;2023-09-08T12:55:16;5.18;;;1.63;;
66663;SDS011;59683;51.428;-1.994;2023-09-08T12:57:42;4.18;;;1.77;;
66663;SDS011;59683;51.428;-1.994;2023-09-08T13:00:07;8.05;;;2.30;;
66663;SDS011;59683;51.428;-1.994;2023-09-08T13:02:33;9.18;;;3.10;;
66663;SDS011;59683;51.428;-1.994;2023-09-08T13:04:59;5.63;;;1.75;;
66663;SDS011;59683;51.428;-1.994;2023-09-08T13:07:25;4.82;;;2.10;;
66663;SDS011;59683;51.428;-1.994;2023-09-08T13:09:51;4.03;;;1.58;;
66663;SDS011;59683;51.428;-1.994;2023-09-08T13:12:17;9.63;;;2.13;;
66663;SDS011;59683;51.428;-1.994;2023-09-08T13:14:42;6.75;;;1.65;;
66663;SDS011;59683;51.428;-1.994;2023-09-08T13:17:09;6.45;;;2.05;;
66663;SDS011;59683;51.428;-1.994;2023-09-08T13:19:35;5.97;;;1.55;;
66663;SDS011;59683;51.428;-1.994;2023-09-08T13:22:02;4.15;;;1.67;;
66663;SDS011;59683;51.428;-1.994;2023-09-08T13:24:28;7.65;;;2.53;;
66663;SDS011;59683;51.428;-1.994;2023-09-08T13:26:54;5.15;;;1.75;;
66663;SDS011;59683;51.428;-1.994;2023-09-08T13:29:19;4.65;;;1.50;;
66663;SDS011;59683;51.428;-1.994;2023-09-08T13:31:45;4.55;;;1.25;;
66663;SDS011;59683;51.428;-1.994;2023-09-08T13:34:10;7.70;;;1.85;;
66663;SDS011;59683;51.428;-1.994;2023-09-08T13:36:35;4.50;;;1.77;;
66663;SDS011;59683;51.428;-1.994;2023-09-08T13:39:01;4.63;;;1.40;;
66663;SDS011;59683;51.428;-1.994;2023-09-08T13:44:22;8.00;;;1.33;;
66663;SDS011;59683;51.428;-1.994;2023-09-08T13:46:54;8.80;;;1.67;;
66663;SDS011;59683;51.428;-1.994;2023-09-08T13:49:20;10.05;;;1.60;;
66663;SDS011;59683;51.428;-1.994;2023-09-08T13:51:46;7.97;;;1.40;;
66663;SDS011;59683;51.428;-1.994;2023-09-08T13:54:12;5.05;;;2.00;;
66663;SDS011;59683;51.428;-1.994;2023-09-08T13:56:38;5.85;;;1.58;;
66663;SDS011;59683;51.428;-1.994;2023-09-08T13:59:05;5.28;;;1.80;;
66663;SDS011;59683;51.428;-1.994;2023-09-08T14:01:30;8.50;;;1.92;;
66663;SDS011;59683;51.428;-1.994;2023-09-08T14:03:58;7.85;;;1.70;;
66663;SDS011;59683;51.428;-1.994;2023-09-08T14:06:25;6.65;;;1.55;;
66663;SDS011;59683;51.428;-1.994;2023-09-08T14:08:51;7.95;;;1.67;;
66663;SDS011;59683;51.428;-1.994;2023-09-08T14:11:17;6.80;;;1.90;;
66663;SDS011;59683;51.428;-1.994;2023-09-08T14:13:42;6.57;;;1.77;;
66663;SDS011;59683;51.428;-1.994;2023-09-08T14:16:08;7.60;;;1.60;;
66663;SDS011;59683;51.428;-1.994;2023-09-08T14:18:33;5.97;;;1.92;;
66663;SDS011;59683;51.428;-1.994;2023-09-08T14:20:59;10.57;;;1.92;;
66663;SDS011;59683;51.428;-1.994;2023-09-08T14:23:25;5.93;;;1.75;;
66663;SDS011;59683;51.428;-1.994;2023-09-08T14:25:51;7.90;;;1.80;;
66663;SDS011;59683;51.428;-1.994;2023-09-08T14:28:17;12.45;;;1.98;;
66663;SDS011;59683;51.428;-1.994;2023-09-08T14:30:42;11.85;;;2.22;;
66663;SDS011;59683;51.428;-1.994;2023-09-08T14:33:07;8.05;;;2.00;;
66663;SDS011;59683;51.428;-1.994;2023-09-08T14:35:35;11.68;;;2.30;;
66663;SDS011;59683;51.428;-1.994;2023-09-08T14:38:00;10.48;;;1.98;;
66663;SDS011;59683;51.428;-1.994;2023-09-08T14:40:25;5.47;;;1.70;;
66663;SDS011;59683;51.428;-1.994;2023-09-08T14:42:51;6.93;;;2.25;;
66663;SDS011;59683;51.428;-1.994;2023-09-08T14:45:16;9.10;;;1.88;;
66663;SDS011;59683;51.428;-1.994;2023-09-08T14:47:42;10.05;;;1.75;;
66663;SDS011;59683;51.428;-1.994;2023-09-08T14:50:07;7.00;;;1.83;;
66663;SDS011;59683;51.428;-1.994;2023-09-08T14:52:33;9.18;;;2.05;;
66663;SDS011;59683;51.428;-1.994;2023-09-08T14:54:58;6.10;;;1.88;;
66663;SDS011;59683;51.428;-1.994;2023-09-08T14:57:23;11.60;;;2.60;;
66663;SDS011;59683;51.428;-1.994;2023-09-08T14:59:49;14.20;;;2.85;;
66663;SDS011;59683;51.428;-1.994;2023-09-08T15:02:14;10.70;;;2.97;;
66663;SDS011;59683;51.428;-1.994;2023-09-08T15:04:40;11.73;;;2.15;;
66663;SDS011;59683;51.428;-1.994;2023-09-08T15:07:05;10.20;;;2.45;;
66663;SDS011;59683;51.428;-1.994;2023-09-08T15:09:31;11.88;;;2.65;;
66663;SDS011;59683;51.428;-1.994;2023-09-08T15:11:58;9.45;;;2.38;;
66663;SDS011;59683;51.428;-1.994;2023-09-08T15:14:23;6.35;;;1.80;;
66663;SDS011;59683;51.428;-1.994;2023-09-08T15:16:48;7.47;;;1.83;;
66663;SDS011;59683;51.428;-1.994;2023-09-08T15:19:14;9.50;;;1.80;;
66663;SDS011;59683;51.428;-1.994;2023-09-08T15:21:39;6.60;;;2.20;;
66663;SDS011;59683;51.428;-1.994;2023-09-08T15:24:05;9.52;;;2.40;;
66663;SDS011;59683;51.428;-1.994;2023-09-08T15:26:31;11.65;;;1.92;;
66663;SDS011;59683;51.428;-1.994;2023-09-08T15:28:56;7.60;;;1.95;;
66663;SDS011;59683;51.428;-1.994;2023-09-08T15:31:24;9.50;;;2.10;;
66663;SDS011;59683;51.428;-1.994;2023-09-08T15:33:49;7.55;;;2.15;;
66663;SDS011;59683;51.428;-1.994;2023-09-08T15:36:16;7.30;;;2.30;;
66663;SDS011;59683;51.428;-1.994;2023-09-08T15:38:42;10.68;;;2.47;;
66663;SDS011;59683;51.428;-1.994;2023-09-08T15:43:36;20.15;;;3.50;;
66663;SDS011;59683;51.428;-1.994;2023-09-08T15:46:03;5.38;;;2.30;;
66663;SDS011;59683;51.428;-1.994;2023-09-08T15:48:29;5.85;;;1.38;;
66663;SDS011;59683;51.428;-1.994;2023-09-08T15:50:54;8.52;;;2.40;;
66663;SDS011;59683;51.428;-1.994;2023-09-08T15:53:20;7.65;;;2.35;;
66663;SDS011;59683;51.428;-1.994;2023-09-08T15:55:45;6.60;;;2.47;;
66663;SDS011;59683;51.428;-1.994;2023-09-08T15:58:10;7.65;;;1.80;;
66663;SDS011;59683;51.428;-1.994;2023-09-08T16:00:36;7.00;;;2.42;;
66663;SDS011;59683;51.428;-1.994;2023-09-08T16:03:01;11.05;;;2.55;;
66663;SDS011;59683;51.428;-1.994;2023-09-08T16:05:27;9.15;;;2.60;;
66663;SDS011;59683;51.428;-1.994;2023-09-08T16:07:52;8.40;;;2.85;;
66663;SDS011;59683;51.428;-1.994;2023-09-08T16:10:18;6.88;;;2.15;;
66663;SDS011;59683;51.428;-1.994;2023-09-08T16:12:43;20.77;;;4.43;;
66663;SDS011;59683;51.428;-1.994;2023-09-08T16:15:09;8.43;;;2.15;;
66663;SDS011;59683;51.428;-1.994;2023-09-08T16:17:34;7.40;;;2.45;;
66663;SDS011;59683;51.428;-1.994;2023-09-08T16:20:00;12.73;;;2.50;;
66663;SDS011;59683;51.428;-1.994;2023-09-08T16:22:25;12.95;;;2.10;;
66663;SDS011;59683;51.428;-1.994;2023-09-08T16:24:51;11.23;;;2.47;;
66663;SDS011;59683;51.428;-1.994;2023-09-08T16:27:16;11.23;;;2.63;;
66663;SDS011;59683;51.428;-1.994;2023-09-08T16:29:42;9.55;;;2.50;;
66663;SDS011;59683;51.428;-1.994;2023-09-08T16:32:10;8.43;;;2.22;;
66663;SDS011;59683;51.428;-1.994;2023-09-08T16:34:36;9.10;;;2.60;;
66663;SDS011;59683;51.428;-1.994;2023-09-08T16:37:01;10.70;;;2.30;;
66663;SDS011;59683;51.428;-1.994;2023-09-08T16:39:27;14.52;;;3.13;;
66663;SDS011;59683;51.428;-1.994;2023-09-08T16:41:53;11.07;;;2.53;;
66663;SDS011;59683;51.428;-1.994;2023-09-08T16:44:18;10.63;;;2.65;;
66663;SDS011;59683;51.428;-1.994;2023-09-08T16:46:44;11.48;;;2.60;;
66663;SDS011;59683;51.428;-1.994;2023-09-08T16:49:09;9.50;;;2.58;;
66663;SDS011;59683;51.428;-1.994;2023-09-08T16:51:34;8.98;;;2.70;;
66663;SDS011;59683;51.428;-1.994;2023-09-08T16:54:00;10.27;;;2.78;;
66663;SDS011;59683;51.428;-1.994;2023-09-08T16:56:25;8.23;;;2.65;;
66663;SDS011;59683;51.428;-1.994;2023-09-08T16:58:51;9.15;;;2.42;;
66663;SDS011;59683;51.428;-1.994;2023-09-08T17:01:16;6.97;;;2.47;;
66663;SDS011;59683;51.428;-1.994;2023-09-08T17:03:42;9.73;;;2.70;;
66663;SDS011;59683;51.428;-1.994;2023-09-08T17:06:07;15.52;;;2.40;;
66663;SDS011;59683;51.428;-1.994;2023-09-08T17:08:32;10.05;;;2.60;;
66663;SDS011;59683;51.428;-1.994;2023-09-08T17:11:05;5.88;;;2.92;;
66663;SDS011;59683;51.428;-1.994;2023-09-08T17:13:31;10.57;;;1.90;;
66663;SDS011;59683;51.428;-1.994;2023-09-08T17:15:57;9.82;;;2.28;;
66663;SDS011;59683;51.428;-1.994;2023-09-08T17:18:23;11.27;;;2.10;;
66663;SDS011;59683;51.428;-1.994;2023-09-08T17:20:50;8.05;;;2.22;;
66663;SDS011;59683;51.428;-1.994;2023-09-08T17:23:16;10.05;;;2.40;;
66663;SDS011;59683;51.428;-1.994;2023-09-08T17:25:43;12.98;;;2.28;;
66663;SDS011;59683;51.428;-1.994;2023-09-08T17:28:09;7.50;;;2.33;;
66663;SDS011;59683;51.428;-1.994;2023-09-08T17:30:34;8.05;;;2.50;;
66663;SDS011;59683;51.428;-1.994;2023-09-08T17:33:00;10.40;;;2.60;;
66663;SDS011;59683;51.428;-1.994;2023-09-08T17:35:25;14.40;;;2.80;;
66663;SDS011;59683;51.428;-1.994;2023-09-08T17:37:51;6.28;;;2.42;;
66663;SDS011;59683;51.428;-1.994;2023-09-08T17:40:17;6.70;;;2.38;;
